Time;durP1;ratioP1;P1;durP2;ratioP2;P2;SDS_P1;SDS_P2;PMS_P1;PMS_P2;Temp;Humidity;BMP_temperature;BMP_pressure;BME280_temperature;BME280_humidity;BME280_pressure;Samples;Min_cycle;Max_cycle;Signal;HPM_P1;HPM_P2
2022/01/11 00:04:32;;;;;;;;;;;;;;;;;;10435655;28;20103;-70
2022/01/11 00:09:40;;;;;;;14.80;5.73;;;;;;;;;;10433739;28;19935;-67
2022/01/11 00:14:44;;;;;;;16.87;6.00;;;;;;;;;;10433754;28;20828;-70
2022/01/11 00:19:49;;;;;;;8.43;3.80;;;;;;;;;;10432498;28;20057;-70
2022/01/11 00:24:51;;;;;;;16.97;5.90;;;;;;;;;;10439332;28;20115;-70
2022/01/11 00:30:05;;;;;;;20.67;6.87;;;;;;;;;;10449025;22;20033;-76
2022/01/11 00:35:11;;;;;;;11.10;3.30;;;;;;;;;;10354881;28;21029;-75
2022/01/11 00:40:14;;;;;;;11.83;4.23;;;;;;;;;;10353878;28;20562;-74
2022/01/11 00:45:18;;;;;;;15.90;5.87;;;;;;;;;;10352221;28;20455;-75
2022/01/11 00:50:21;;;;;;;22.27;6.63;;;;;;;;;;10352477;28;20080;-77
2022/01/11 00:55:24;;;;;;;13.73;4.27;;;;;;;;;;10353689;28;20041;-76
2022/01/11 01:00:29;;;;;;;8.30;3.93;;;;;;;;;;10372086;28;20045;-75
2022/01/11 01:05:32;;;;;;;14.43;5.13;;;;;;;;;;10354878;28;20042;-75
2022/01/11 01:10:39;;;;;;;17.03;5.73;;;;;;;;;;10363340;28;20034;-75
2022/01/11 01:15:46;;;;;;;15.03;5.20;;;;;;;;;;10361044;28;20094;-75
2022/01/11 01:20:49;;;;;;;11.83;4.60;;;;;;;;;;10362323;28;20038;-75
2022/01/11 01:25:53;;;;;;;13.80;3.97;;;;;;;;;;10363304;28;20040;-75
2022/01/11 01:31:00;;;;;;;12.50;5.10;;;;;;;;;;10360351;28;20061;-77
2022/01/11 01:36:08;;;;;;;15.83;5.63;;;;;;;;;;10360361;28;20035;-76
2022/01/11 01:41:15;;;;;;;12.73;4.60;;;;;;;;;;10364445;28;20061;-73
2022/01/11 01:46:19;;;;;;;16.43;5.83;;;;;;;;;;10373043;28;20025;-75
2022/01/11 01:51:23;;;;;;;21.73;6.23;;;;;;;;;;10396772;28;20045;-75
2022/01/11 01:56:26;;;;;;;11.17;4.30;;;;;;;;;;10381455;28;20050;-75
2022/01/11 02:01:32;;;;;;;19.17;6.90;;;;;;;;;;10359831;28;20530;-75
2022/01/11 02:06:36;;;;;;;16.50;5.97;;;;;;;;;;10359283;28;20054;-76
2022/01/11 02:11:39;;;;;;;18.80;6.50;;;;;;;;;;10359354;28;20441;-76
2022/01/11 02:16:44;;;;;;;18.83;6.77;;;;;;;;;;10356353;28;20038;-75
2022/01/11 02:21:48;;;;;;;19.07;6.63;;;;;;;;;;10354374;28;20100;-76
2022/01/11 02:26:51;;;;;;;;;;;;;;;;;;10359393;28;20104;-75
2022/01/11 02:31:54;;;;;;;12.30;4.37;;;;;;;;;;10349673;28;19921;-75
2022/01/11 02:36:58;;;;;;;14.07;4.40;;;;;;;;;;10353398;28;20077;-77
2022/01/11 02:42:02;;;;;;;10.60;3.97;;;;;;;;;;10365255;28;20445;-75
2022/01/11 02:47:05;;;;;;;15.73;5.30;;;;;;;;;;10361332;28;20052;-75
2022/01/11 02:52:09;;;;;;;22.47;6.50;;;;;;;;;;10369575;28;20045;-75
2022/01/11 02:57:12;;;;;;;19.73;6.23;;;;;;;;;;10358487;28;20088;-74
2022/01/11 03:02:15;;;;;;;16.13;5.90;;;;;;;;;;10358674;28;20529;-75
2022/01/11 03:07:20;;;;;;;16.70;5.47;;;;;;;;;;10356947;28;20051;-76
2022/01/11 03:12:23;;;;;;;16.50;6.00;;;;;;;;;;10358946;28;20049;-77
2022/01/11 03:17:26;;;;;;;17.40;6.13;;;;;;;;;;10359556;28;20591;-76
2022/01/11 03:22:30;;;;;;;18.80;6.97;;;;;;;;;;10353063;28;20045;-76
2022/01/11 03:27:33;;;;;;;;;;;;;;;;;;10358477;28;20030;-75
2022/01/11 03:32:36;;;;;;;14.27;4.80;;;;;;;;;;10378956;28;20310;-75
2022/01/11 03:37:41;;;;;;;18.03;6.23;;;;;;;;;;10361099;28;20092;-76
2022/01/11 03:42:44;;;;;;;18.13;6.17;;;;;;;;;;10357173;28;20045;-77
2022/01/11 03:47:47;;;;;;;19.63;6.43;;;;;;;;;;10352831;28;20122;-79
2022/01/11 03:52:58;;;;;;;16.33;5.73;;;;;;;;;;10351515;28;20034;-77
2022/01/11 03:58:01;;;;;;;19.07;6.07;;;;;;;;;;10359525;28;20065;-75
2022/01/11 04:03:05;;;;;;;18.63;6.70;;;;;;;;;;10353459;28;20034;-75
2022/01/11 04:08:09;;;;;;;21.20;6.33;;;;;;;;;;10353817;28;20858;-75
2022/01/11 04:13:17;;;;;;;19.60;6.23;;;;;;;;;;10353884;28;20093;-76
2022/01/11 04:18:20;;;;;;;15.80;5.13;;;;;;;;;;10357006;28;20042;-76
2022/01/11 04:23:26;;;;;;;21.10;6.47;;;;;;;;;;10355163;28;20126;-77
2022/01/11 04:28:29;;;;;;;19.77;5.77;;;;;;;;;;10352931;28;20050;-76
2022/01/11 04:33:32;;;;;;;16.37;5.67;;;;;;;;;;10362623;28;20502;-76
2022/01/11 04:38:37;;;;;;;19.17;6.17;;;;;;;;;;10389996;28;20133;-77
2022/01/11 04:43:40;;;;;;;17.77;5.97;;;;;;;;;;10369615;28;20141;-76
2022/01/11 04:48:43;;;;;;;23.97;6.67;;;;;;;;;;10362225;28;20494;-75
2022/01/11 04:53:47;;;;;;;16.47;6.40;;;;;;;;;;10358380;28;20169;-76
2022/01/11 04:58:49;;;;;;;;;;;;;;;;;;10362268;28;20412;-74
2022/01/11 05:03:52;;;;;;;16.47;5.60;;;;;;;;;;10373980;28;19963;-76
2022/01/11 05:08:57;;;;;;;22.07;5.73;;;;;;;;;;10370149;28;20069;-76
2022/01/11 05:14:00;;;;;;;21.80;7.27;;;;;;;;;;10367317;28;20534;-76
2022/01/11 05:19:03;;;;;;;20.77;6.53;;;;;;;;;;10362251;28;20405;-75
2022/01/11 05:24:08;;;;;;;22.17;6.67;;;;;;;;;;10358658;28;20038;-75
2022/01/11 05:29:10;;;;;;;17.33;6.47;;;;;;;;;;10360283;28;20382;-76
2022/01/11 05:34:13;;;;;;;18.97;6.20;;;;;;;;;;10359807;28;20042;-76
2022/01/11 05:39:18;;;;;;;23.20;7.00;;;;;;;;;;10357178;28;20037;-76
2022/01/11 05:44:21;;;;;;;28.23;7.80;;;;;;;;;;10356179;28;20046;-76
2022/01/11 05:49:23;;;;;;;19.10;6.47;;;;;;;;;;10366592;28;20306;-76
2022/01/11 05:54:27;;;;;;;;;;;;;;;;;;10352555;28;20395;-76
2022/01/11 05:59:32;;;;;;;20.47;6.30;;;;;;;;;;10357320;28;19975;-76
2022/01/11 06:04:34;;;;;;;21.35;6.57;;;;;;;;;;10356107;28;20073;-74
2022/01/11 06:09:37;;;;;;;21.50;6.90;;;;;;;;;;10355345;28;20041;-74
2022/01/11 06:14:41;;;;;;;21.63;6.63;;;;;;;;;;10355970;28;20402;-75
2022/01/11 06:19:44;;;;;;;21.20;7.33;;;;;;;;;;10363302;28;20034;-76
2022/01/11 06:24:47;;;;;;;15.97;6.63;;;;;;;;;;10360629;28;20429;-76
2022/01/11 06:29:51;;;;;;;23.40;6.10;;;;;;;;;;10375522;28;20030;-74
2022/01/11 06:34:55;;;;;;;13.93;4.93;;;;;;;;;;10368670;28;20045;-75
2022/01/11 06:40:01;;;;;;;23.40;7.00;;;;;;;;;;10365983;28;20022;-76
2022/01/11 06:45:06;;;;;;;20.83;7.00;;;;;;;;;;10361427;28;20038;-77
2022/01/11 06:50:10;;;;;;;23.07;7.73;;;;;;;;;;10363778;28;20045;-76
2022/01/11 06:55:13;;;;;;;20.87;6.73;;;;;;;;;;10357803;28;20391;-75
2022/01/11 07:00:18;;;;;;;22.00;6.50;;;;;;;;;;10362718;28;20404;-76
2022/01/11 07:05:21;;;;;;;14.90;4.50;;;;;;;;;;10349620;28;20042;-76
2022/01/11 07:10:24;;;;;;;21.47;8.60;;;;;;;;;;10355843;28;20424;-76
2022/01/11 07:15:28;;;;;;;19.50;6.17;;;;;;;;;;10357071;28;20037;-76
2022/01/11 07:20:31;;;;;;;11.67;3.53;;;;;;;;;;10358749;28;20048;-77
2022/01/11 07:25:35;;;;;;;14.10;4.83;;;;;;;;;;10353828;28;20042;-76
2022/01/11 07:30:39;;;;;;;23.17;7.37;;;;;;;;;;10353720;28;20042;-73
2022/01/11 07:35:42;;;;;;;21.50;7.20;;;;;;;;;;10359738;28;20044;-74
2022/01/11 07:40:46;;;;;;;19.92;6.57;;;;;;;;;;10359552;28;20503;-74
2022/01/11 07:45:50;;;;;;;13.70;5.23;;;;;;;;;;10358854;28;20080;-74
2022/01/11 07:50:54;;;;;;;19.70;6.37;;;;;;;;;;10357119;28;20166;-75
2022/01/11 07:55:57;;;;;;;24.50;7.23;;;;;;;;;;10347592;28;20031;-73
2022/01/11 08:01:01;;;;;;;16.20;6.10;;;;;;;;;;10363872;28;20047;-74
2022/01/11 08:06:04;;;;;;;25.10;6.73;;;;;;;;;;10403299;28;20128;-75
2022/01/11 08:11:08;;;;;;;24.07;7.47;;;;;;;;;;10388533;28;20509;-74
2022/01/11 08:16:13;;;;;;;20.87;6.27;;;;;;;;;;10361267;28;20045;-74
2022/01/11 08:21:16;;;;;;;11.40;5.20;;;;;;;;;;10377469;28;20034;-75
2022/01/11 08:26:19;;;;;;;14.20;4.77;;;;;;;;;;10362393;28;20045;-74
2022/01/11 08:31:23;;;;;;;23.67;7.37;;;;;;;;;;10361385;28;20132;-75
2022/01/11 08:36:26;;;;;;;21.80;6.53;;;;;;;;;;10356433;28;20040;-74
2022/01/11 08:41:29;;;;;;;21.43;7.33;;;;;;;;;;10356682;28;20427;-75
2022/01/11 08:46:33;;;;;;;21.90;7.00;;;;;;;;;;10356842;28;20098;-75
2022/01/11 08:51:36;;;;;;;17.90;5.90;;;;;;;;;;10357176;28;20584;-74
2022/01/11 08:56:40;;;;;;;19.60;6.47;;;;;;;;;;10358755;28;20120;-74
2022/01/11 09:01:44;;;;;;;19.83;7.40;;;;;;;;;;10354414;28;20044;-73
2022/01/11 09:06:47;;;;;;;26.43;8.13;;;;;;;;;;10359627;28;20041;-75
2022/01/11 09:11:51;;;;;;;;;;;;;;;;;;10360459;28;20034;-76
2022/01/11 09:16:56;;;;;;;21.00;6.63;;;;;;;;;;10356353;28;19984;-73
2022/01/11 09:22:00;;;;;;;28.63;8.03;;;;;;;;;;10361391;28;20161;-74
2022/01/11 09:27:07;;;;;;;12.57;5.10;;;;;;;;;;10365837;28;20422;-74
2022/01/11 09:32:12;;;;;;;24.80;7.97;;;;;;;;;;10357831;28;20034;-75
2022/01/11 09:37:16;;;;;;;16.00;5.90;;;;;;;;;;10366843;28;20034;-74
2022/01/11 09:42:19;;;;;;;21.90;6.57;;;;;;;;;;10362513;28;20061;-75
2022/01/11 09:47:23;;;;;;;17.50;6.27;;;;;;;;;;10369605;28;20042;-74
2022/01/11 09:52:26;;;;;;;;;;;;;;;;;;10369235;28;20040;-74
2022/01/11 09:57:28;;;;;;;26.03;8.13;;;;;;;;;;10365679;28;19921;-73
2022/01/11 10:02:37;;;;;;;18.40;6.27;;;;;;;;;;10377636;28;20063;-73
2022/01/11 10:07:41;;;;;;;15.55;5.88;;;;;;;;;;10366435;28;20041;-75
2022/01/11 10:12:45;;;;;;;17.70;6.45;;;;;;;;;;10365666;28;20433;-75
2022/01/11 10:17:49;;;;;;;15.80;6.30;;;;;;;;;;10362248;28;20116;-76
2022/01/11 10:22:54;;;;;;;18.40;6.22;;;;;;;;;;10360645;28;20030;-74
2022/01/11 10:27:56;;;;;;;;;;;;;;;;;;10361383;28;20049;-75
2022/01/11 10:33:03;;;;;;;17.63;6.45;;;;;;;;;;10357495;28;19968;-75
2022/01/11 10:38:06;;;;;;;15.55;6.25;;;;;;;;;;10364963;28;20042;-75
2022/01/11 10:43:11;;;;;;;17.63;6.37;;;;;;;;;;10363776;28;20037;-75
2022/01/11 10:48:17;;;;;;;12.55;4.75;;;;;;;;;;10371089;28;20069;-75
2022/01/11 10:53:22;;;;;;;14.68;6.95;;;;;;;;;;10365532;28;20036;-75
2022/01/11 10:58:24;;;;;;;;;;;;;;;;;;10365099;28;20449;-73
2022/01/11 11:03:30;;;;;;;14.52;6.22;;;;;;;;;;10365713;28;20386;-73
2022/01/11 11:08:35;;;;;;;13.63;6.10;;;;;;;;;;10365736;28;20064;-75
2022/01/11 11:13:59;;;;;;;11.90;5.22;;;;;;;;;;10364836;28;20165;-74
2022/01/11 11:19:04;;;;;;;11.75;5.80;;;;;;;;;;10368032;28;20097;-76
2022/01/11 11:24:08;;;;;;;10.27;4.95;;;;;;;;;;10394073;28;20033;-75
2022/01/11 11:29:11;;;;;;;13.48;4.80;;;;;;;;;;10395488;28;20048;-74
2022/01/11 11:34:36;;;;;;;11.80;4.95;;;;;;;;;;10370346;28;20060;-74
2022/01/11 11:39:40;;;;;;;9.63;4.78;;;;;;;;;;10364403;28;20512;-76
2022/01/11 11:44:44;;;;;;;13.10;4.53;;;;;;;;;;10384358;28;20029;-76
2022/01/11 11:49:50;;;;;;;9.00;4.05;;;;;;;;;;10370896;28;22215;-74
2022/01/11 11:54:55;;;;;;;10.45;4.38;;;;;;;;;;10359065;28;20388;-74
2022/01/11 11:59:59;;;;;;;7.20;3.03;;;;;;;;;;10354228;28;20030;-74
2022/01/11 12:05:05;;;;;;;9.27;4.35;;;;;;;;;;10360937;28;20383;-76
2022/01/11 12:10:12;;;;;;;8.95;4.35;;;;;;;;;;10358985;28;20075;-75
2022/01/11 12:15:35;;;;;;;10.93;3.85;;;;;;;;;;10362248;28;20072;-75
2022/01/11 12:20:42;;;;;;;8.55;3.70;;;;;;;;;;10350430;28;20113;-75
2022/01/11 12:25:45;;;;;;;15.35;5.35;;;;;;;;;;10358220;28;20065;-75
2022/01/11 12:30:48;;;;;;;8.90;4.13;;;;;;;;;;10355104;28;20104;-75
2022/01/11 12:35:54;;;;;;;10.70;4.32;;;;;;;;;;10447505;22;20103;-69
2022/01/11 12:40:57;;;;;;;9.45;4.55;;;;;;;;;;10445941;28;20140;-71
2022/01/11 12:46:04;;;;;;;10.90;3.73;;;;;;;;;;10433544;28;20267;-72
2022/01/11 12:51:08;;;;;;;11.60;4.68;;;;;;;;;;10428359;28;20471;-69
2022/01/11 12:56:12;;;;;;;9.43;3.92;;;;;;;;;;10440173;28;20033;-69
2022/01/11 13:01:18;;;;;;;12.15;4.15;;;;;;;;;;10453362;28;20489;-71
2022/01/11 13:06:23;;;;;;;13.73;4.27;;;;;;;;;;10446975;28;20033;-71
2022/01/11 13:11:26;;;;;;;9.85;3.85;;;;;;;;;;10433920;28;20033;-69
2022/01/11 13:16:30;;;;;;;10.67;4.40;;;;;;;;;;10442355;28;20040;-70
2022/01/11 13:21:35;;;;;;;9.60;3.70;;;;;;;;;;10438580;28;20045;-72
2022/01/11 13:26:39;;;;;;;7.07;3.40;;;;;;;;;;10435159;28;20049;-70
2022/01/11 13:31:42;;;;;;;11.00;4.00;;;;;;;;;;10444370;28;20061;-73
2022/01/11 13:36:48;;;;;;;9.50;3.63;;;;;;;;;;10451233;28;20041;-71
2022/01/11 13:41:52;;;;;;;10.33;4.00;;;;;;;;;;10438433;28;20335;-71
2022/01/11 13:46:57;;;;;;;12.03;4.50;;;;;;;;;;10436925;28;20123;-70
2022/01/11 13:52:02;;;;;;;5.97;2.65;;;;;;;;;;10440794;28;20040;-71
2022/01/11 13:57:07;;;;;;;7.73;2.60;;;;;;;;;;10444012;28;20036;-69
2022/01/11 14:02:14;;;;;;;8.93;3.70;;;;;;;;;;10432296;28;20465;-70
2022/01/11 14:07:20;;;;;;;8.60;3.50;;;;;;;;;;10441495;28;20114;-70
2022/01/11 14:12:25;;;;;;;10.43;4.53;;;;;;;;;;10436737;28;20065;-71
2022/01/11 14:17:48;;;;;;;8.23;3.87;;;;;;;;;;10441925;28;20406;-71
2022/01/11 14:22:53;;;;;;;10.13;3.90;;;;;;;;;;10438468;28;20045;-71
2022/01/11 14:27:58;;;;;;;9.50;4.10;;;;;;;;;;10446159;28;20108;-72
2022/01/11 14:33:07;;;;;;;8.97;4.43;;;;;;;;;;10437484;28;20039;-70
2022/01/11 14:38:14;;;;;;;16.60;4.60;;;;;;;;;;10443447;28;20052;-72
2022/01/11 14:43:19;;;;;;;10.53;4.17;;;;;;;;;;10441619;28;20037;-72
2022/01/11 14:48:29;;;;;;;14.73;4.30;;;;;;;;;;10441662;28;20080;-69
2022/01/11 14:53:34;;;;;;;13.17;4.67;;;;;;;;;;10439529;28;20048;-72
2022/01/11 14:58:39;;;;;;;10.07;3.93;;;;;;;;;;10440945;28;20037;-69
2022/01/11 15:03:43;;;;;;;5.47;2.40;;;;;;;;;;10439689;28;20086;-70
2022/01/11 15:08:46;;;;;;;;;;;;;;;;;;10440405;28;20045;-70
2022/01/11 15:13:54;;;;;;;2.03;1.43;;;;;;;;;;10440677;28;19927;-72
2022/01/11 15:18:57;;;;;;;8.53;3.27;;;;;;;;;;10442661;28;20037;-72
2022/01/11 15:24:00;;;;;;;8.77;3.97;;;;;;;;;;10436685;28;20056;-69
2022/01/11 15:29:06;;;;;;;8.77;3.70;;;;;;;;;;10432084;28;20040;-71
2022/01/11 15:34:09;;;;;;;7.63;3.13;;;;;;;;;;10435018;28;20043;-71
2022/01/11 15:39:12;;;;;;;6.33;2.10;;;;;;;;;;10461901;28;20048;-71
2022/01/11 15:44:17;;;;;;;8.33;3.77;;;;;;;;;;10478173;28;20029;-71
2022/01/11 15:49:21;;;;;;;4.97;2.13;;;;;;;;;;10477663;28;20366;-71
2022/01/11 15:54:25;;;;;;;14.47;3.93;;;;;;;;;;10472003;28;20037;-72
2022/01/11 15:59:30;;;;;;;7.33;3.27;;;;;;;;;;10477879;28;20036;-72
2022/01/11 16:04:33;;;;;;;10.97;4.40;;;;;;;;;;10474505;28;20033;-70
2022/01/11 16:09:36;;;;;;;10.85;4.30;;;;;;;;;;10471447;28;20051;-71
2022/01/11 16:14:41;;;;;;;12.60;5.30;;;;;;;;;;10448038;28;20485;-70
2022/01/11 16:19:45;;;;;;;11.90;4.67;;;;;;;;;;10460892;28;20452;-70
2022/01/11 16:24:48;;;;;;;13.90;4.97;;;;;;;;;;10438020;28;20119;-69
2022/01/11 16:29:53;;;;;;;14.30;3.83;;;;;;;;;;10442207;28;20033;-69
2022/01/11 16:34:55;;;;;;;;;;;;;;;;;;10438744;28;20048;-68
2022/01/11 16:40:07;;;;;;;6.87;3.10;;;;;;;;;;10448665;28;19924;-69
2022/01/11 16:45:16;;;;;;;2.43;1.13;;;;;;;;;;10448417;28;20036;-70
2022/01/11 16:50:19;;;;;;;11.00;4.27;;;;;;;;;;10440542;28;20048;-70
2022/01/11 16:55:23;;;;;;;8.50;2.67;;;;;;;;;;10443725;28;20045;-70
2022/01/11 17:00:28;;;;;;;6.85;2.88;;;;;;;;;;10447649;28;20114;-69
2022/01/11 17:05:32;;;;;;;13.30;5.57;;;;;;;;;;10449801;28;20103;-71
2022/01/11 17:10:35;;;;;;;12.65;4.32;;;;;;;;;;10447191;28;20313;-70
2022/01/11 17:15:40;;;;;;;14.73;4.73;;;;;;;;;;10458678;28;20480;-71
2022/01/11 17:20:43;;;;;;;10.90;4.53;;;;;;;;;;10446521;28;20304;-72
2022/01/11 17:25:46;;;;;;;12.40;4.67;;;;;;;;;;10455420;28;20090;-69
2022/01/11 17:30:51;;;;;;;17.80;5.77;;;;;;;;;;10442136;28;20037;-71
2022/01/11 17:35:54;;;;;;;14.20;5.50;;;;;;;;;;10446290;28;20044;-71
2022/01/11 17:40:58;;;;;;;13.40;4.88;;;;;;;;;;10447680;28;20460;-69
2022/01/11 17:46:02;;;;;;;13.90;5.90;;;;;;;;;;10448103;28;20116;-69
2022/01/11 17:51:06;;;;;;;13.33;5.83;;;;;;;;;;10445661;28;20119;-68
2022/01/11 17:56:09;;;;;;;18.83;6.27;;;;;;;;;;10448038;28;20039;-69
2022/01/11 18:01:14;;;;;;;14.20;5.90;;;;;;;;;;10443541;28;20659;-68
2022/01/11 18:06:17;;;;;;;18.00;5.63;;;;;;;;;;10447636;28;20563;-69
2022/01/11 18:11:22;;;;;;;13.43;4.87;;;;;;;;;;10445246;28;20056;-69
2022/01/11 18:16:27;;;;;;;13.30;5.43;;;;;;;;;;10445857;28;20041;-70
2022/01/11 18:21:32;;;;;;;13.90;5.30;;;;;;;;;;10442513;28;20074;-69
2022/01/11 18:26:36;;;;;;;15.97;5.50;;;;;;;;;;10447365;28;20071;-69
2022/01/11 18:31:41;;;;;;;22.00;6.07;;;;;;;;;;10443987;28;20626;-71
2022/01/11 18:36:50;;;;;;;16.37;6.37;;;;;;;;;;10480062;22;20454;-74
2022/01/11 18:41:53;;;;;;;13.43;5.47;;;;;;;;;;10451014;28;20476;-73
2022/01/11 18:46:58;;;;;;;13.63;5.93;;;;;;;;;;10446870;28;20033;-73
2022/01/11 18:52:01;;;;;;;9.80;4.33;;;;;;;;;;10442138;28;20037;-73
2022/01/11 18:57:06;;;;;;;13.73;5.10;;;;;;;;;;10442479;28;20056;-75
2022/01/11 19:02:12;;;;;;;14.47;5.67;;;;;;;;;;10425457;28;20052;-74
2022/01/11 19:07:16;;;;;;;21.63;7.07;;;;;;;;;;10431203;28;20096;-74
2022/01/11 19:12:19;;;;;;;15.77;6.27;;;;;;;;;;10410429;28;20079;-74
2022/01/11 19:17:24;;;;;;;14.53;5.27;;;;;;;;;;10437167;28;20041;-75
2022/01/11 19:22:27;;;;;;;16.23;5.60;;;;;;;;;;10415725;28;20041;-74
2022/01/11 19:27:32;;;;;;;12.87;4.90;;;;;;;;;;10436164;28;20144;-74
2022/01/11 19:32:37;;;;;;;7.33;3.67;;;;;;;;;;10419041;28;20055;-74
2022/01/11 19:37:40;;;;;;;8.87;3.73;;;;;;;;;;10424563;28;20033;-73
2022/01/11 19:42:44;;;;;;;14.53;5.20;;;;;;;;;;10439575;28;20033;-73
2022/01/11 19:47:48;;;;;;;10.20;4.90;;;;;;;;;;10438019;28;20216;-74
2022/01/11 19:52:51;;;;;;;19.07;7.40;;;;;;;;;;10438338;28;20095;-75
2022/01/11 19:57:54;;;;;;;18.17;6.87;;;;;;;;;;10443142;28;20304;-74
2022/01/11 20:03:01;;;;;;;18.43;5.30;;;;;;;;;;10437474;28;20041;-74
2022/01/11 20:08:05;;;;;;;16.40;6.23;;;;;;;;;;10441223;28;20048;-74
2022/01/11 20:13:08;;;;;;;15.15;6.68;;;;;;;;;;10425009;28;20052;-75
2022/01/11 20:18:14;;;;;;;11.57;5.30;;;;;;;;;;10429428;28;20041;-75
2022/01/11 20:28:38;;;;;;;18.00;6.37;;;;;;;;;;10452023;28;20061;-75
2022/01/11 20:33:42;;;;;;;16.17;5.93;;;;;;;;;;10475921;28;20117;-75
2022/01/11 20:38:45;;;;;;;15.83;6.23;;;;;;;;;;10444694;28;21076;-74
2022/01/11 20:43:52;;;;;;;18.77;7.23;;;;;;;;;;10428501;28;20037;-75
2022/01/11 20:48:57;;;;;;;19.00;7.13;;;;;;;;;;10441178;28;20048;-75
2022/01/11 20:54:00;;;;;;;20.17;7.40;;;;;;;;;;10413193;28;20469;-75
2022/01/11 20:59:03;;;;;;;15.83;5.43;;;;;;;;;;10441231;28;20037;-75
2022/01/11 21:04:08;;;;;;;20.37;7.00;;;;;;;;;;10411016;28;20033;-73
2022/01/11 21:09:11;;;;;;;;;;;;;;;;;;10422020;28;20470;-74
2022/01/11 21:14:15;;;;;;;14.37;5.20;;;;;;;;;;10439284;28;20027;-73
2022/01/11 21:24:41;;;;;;;16.63;6.97;;;;;;;;;;10446147;28;20128;-73
2022/01/11 21:29:45;;;;;;;12.73;5.30;;;;;;;;;;10436157;28;20092;-76
2022/01/11 21:34:51;;;;;;;17.87;7.60;;;;;;;;;;10426521;28;20071;-75
2022/01/11 21:39:56;;;;;;;10.47;4.43;;;;;;;;;;10435279;28;20220;-74
2022/01/11 21:44:59;;;;;;;28.43;11.23;;;;;;;;;;10444541;28;20385;-76
2022/01/11 21:50:05;;;;;;;20.13;8.20;;;;;;;;;;10424963;28;20045;-77
2022/01/11 21:55:09;;;;;;;26.07;8.00;;;;;;;;;;10423903;28;20045;-74
2022/01/11 22:00:13;;;;;;;23.67;8.77;;;;;;;;;;10435114;28;20079;-73
2022/01/11 22:05:18;;;;;;;20.70;7.82;;;;;;;;;;10442283;28;20094;-76
2022/01/11 22:10:24;;;;;;;25.63;8.27;;;;;;;;;;10417806;28;20048;-75
2022/01/11 22:15:58;;;;;;;23.60;7.90;;;;;;;;;;10451365;28;20079;-75
2022/01/11 22:21:03;;;;;;;4.07;2.05;;;;;;;;;;10428262;28;20081;-75
2022/01/11 22:26:06;;;;;;;1.20;0.90;;;;;;;;;;10441853;28;20510;-78
2022/01/11 22:31:10;;;;;;;22.67;7.50;;;;;;;;;;10422914;28;20053;-76
2022/01/11 22:36:15;;;;;;;9.73;3.10;;;;;;;;;;10446340;28;20128;-77
2022/01/11 22:41:17;;;;;;;21.70;7.10;;;;;;;;;;10430586;28;20481;-82
2022/01/11 22:46:20;;;;;;;23.33;8.13;;;;;;;;;;10447536;28;20029;-77
2022/01/11 22:51:25;;;;;;;23.33;8.20;;;;;;;;;;10421449;28;20040;-76
2022/01/11 22:56:28;;;;;;;26.65;8.77;;;;;;;;;;10443580;28;20053;-76
2022/01/11 23:01:31;;;;;;;20.57;8.67;;;;;;;;;;10421945;28;20057;-75
2022/01/11 23:06:37;;;;;;;26.67;8.73;;;;;;;;;;10441429;28;20504;-77
2022/01/11 23:11:47;;;;;;;22.43;6.63;;;;;;;;;;10430378;28;20147;-77
2022/01/11 23:16:50;;;;;;;21.73;7.47;;;;;;;;;;10432941;28;20142;-77
2022/01/11 23:21:54;;;;;;;19.57;7.70;;;;;;;;;;10469883;28;20051;-76
2022/01/11 23:26:57;;;;;;;;;;;;;;;;;;10457844;28;20813;-76
2022/01/11 23:32:00;;;;;;;28.87;9.00;;;;;;;;;;10419796;28;19932;-76
2022/01/11 23:37:09;;;;;;;25.47;9.37;;;;;;;;;;10443711;28;20532;-75
2022/01/11 23:42:19;;;;;;;23.23;7.90;;;;;;;;;;10442591;28;20075;-76
2022/01/11 23:47:22;;;;;;;21.30;7.20;;;;;;;;;;10422544;28;20059;-75
2022/01/11 23:52:27;;;;;;;21.90;8.50;;;;;;;;;;10450322;28;20059;-76
2022/01/11 23:57:31;;;;;;;21.03;8.63;;;;;;;;;;10429832;28;20118;-78
